createdAt,value
2022-09-16T00:00:30.913Z,3.15
2022-09-16T00:02:58.645Z,3.47
2022-09-16T00:05:26.081Z,3.47
2022-09-16T00:07:53.728Z,3.37
2022-09-16T00:10:21.600Z,3.60
2022-09-16T00:12:49.446Z,3.28
2022-09-16T00:15:17.081Z,3.47
2022-09-16T00:17:43.861Z,3.40
2022-09-16T00:20:11.118Z,3.10
2022-09-16T00:22:37.917Z,3.20
2022-09-16T00:25:04.909Z,3.25
2022-09-16T00:27:31.727Z,3.47
2022-09-16T00:29:58.492Z,2.67
2022-09-16T00:32:25.345Z,2.87
2022-09-16T00:34:52.579Z,3.20
2022-09-16T00:37:19.780Z,3.17
2022-09-16T00:39:50.760Z,3.10
2022-09-16T00:42:18.908Z,3.15
2022-09-16T00:44:59.319Z,3.13
2022-09-16T00:47:38.320Z,3.42
2022-09-16T00:50:10.656Z,2.80
2022-09-16T00:52:39.200Z,2.90
2022-09-16T00:55:09.282Z,3.70
2022-09-16T00:57:36.928Z,3.23
2022-09-16T01:00:06.059Z,2.63
2022-09-16T01:02:32.789Z,3.20
2022-09-16T01:05:04.903Z,3.30
2022-09-16T01:07:37.967Z,3.78
2022-09-16T01:10:05.244Z,3.53
2022-09-16T01:12:33.461Z,3.08
2022-09-16T01:15:02.152Z,3.33
2022-09-16T01:17:35.791Z,4.20
2022-09-16T01:20:14.850Z,3.72
2022-09-16T01:23:02.880Z,3.70
2022-09-16T01:25:49.306Z,3.20
2022-09-16T01:28:19.091Z,3.25
2022-09-16T01:31:10.538Z,3.08
2022-09-16T01:34:26.272Z,3.70
2022-09-16T01:37:01.917Z,3.40
2022-09-16T01:39:56.273Z,3.33
2022-09-16T01:42:25.594Z,3.30
2022-09-16T01:45:06.042Z,3.97
2022-09-16T01:47:41.855Z,3.70
2022-09-16T01:50:26.327Z,3.47
2022-09-16T01:53:09.912Z,3.42
2022-09-16T01:55:45.932Z,3.13
2022-09-16T01:58:23.592Z,3.40
2022-09-16T02:00:53.302Z,3.13
2022-09-16T02:03:24.419Z,3.50
2022-09-16T02:05:58.539Z,3.28
2022-09-16T02:08:50.963Z,3.38
2022-09-16T02:11:18.691Z,3.30
2022-09-16T02:13:51.752Z,3.42
2022-09-16T02:16:26.081Z,3.47
2022-09-16T02:18:56.522Z,3.80
2022-09-16T02:21:25.683Z,3.70
2022-09-16T02:23:59.331Z,3.75
2022-09-16T02:26:31.158Z,3.35
2022-09-16T02:28:59.824Z,3.50
2022-09-16T02:31:36.171Z,3.15
2022-09-16T02:34:10.576Z,3.40
2022-09-16T02:36:41.007Z,3.90
2022-09-16T02:39:11.414Z,3.63
2022-09-16T02:41:39.600Z,3.83
2022-09-16T02:44:07.412Z,3.38
2022-09-16T02:46:44.193Z,4.47
2022-09-16T02:49:31.167Z,4.32
2022-09-16T02:52:21.533Z,5.55
2022-09-16T02:55:00.441Z,9.17
2022-09-16T02:57:27.487Z,6.75
2022-09-16T02:59:54.790Z,5.18
2022-09-16T03:02:21.802Z,4.38
2022-09-16T03:04:49.418Z,4.05
2022-09-16T03:07:16.682Z,3.70
2022-09-16T03:09:47.722Z,3.95
2022-09-16T03:12:36.525Z,3.65
2022-09-16T03:15:41.655Z,3.97
2022-09-16T03:18:14.121Z,4.30
2022-09-16T03:20:51.628Z,3.60
2022-09-16T03:23:53.523Z,3.85
2022-09-16T03:26:42.115Z,4.35
2022-09-16T03:29:19.735Z,4.30
2022-09-16T03:32:18.403Z,4.35
2022-09-16T03:34:55.516Z,4.63
2022-09-16T03:37:23.886Z,8.13
2022-09-16T03:39:57.843Z,9.07
2022-09-16T03:42:24.703Z,9.95
2022-09-16T03:44:51.519Z,12.48
2022-09-16T03:47:18.483Z,14.40
2022-09-16T03:49:45.283Z,11.00
2022-09-16T03:52:12.078Z,7.97
2022-09-16T03:54:39.244Z,7.40
2022-09-16T03:57:06.542Z,5.80
2022-09-16T03:59:33.484Z,4.57
2022-09-16T04:02:00.340Z,4.63
2022-09-16T04:04:27.232Z,5.18
2022-09-16T04:06:54.013Z,5.03
2022-09-16T04:09:20.724Z,4.60
2022-09-16T04:11:47.571Z,4.17
2022-09-16T04:14:14.899Z,4.07
2022-09-16T04:16:45.134Z,5.25
2022-09-16T04:19:13.526Z,4.35
2022-09-16T04:21:41.616Z,4.30
2022-09-16T04:24:12.902Z,4.63
2022-09-16T04:26:40.958Z,6.38
2022-09-16T04:29:08.047Z,7.55
2022-09-16T04:31:35.403Z,7.55
2022-09-16T04:34:03.610Z,7.90
2022-09-16T04:36:31.016Z,7.07
2022-09-16T04:38:57.743Z,7.25
2022-09-16T04:41:26.371Z,7.70
2022-09-16T04:43:58.336Z,6.35
2022-09-16T04:46:27.370Z,6.93
2022-09-16T04:48:55.095Z,6.70
2022-09-16T04:51:23.257Z,6.78
2022-09-16T04:53:50.293Z,6.28
2022-09-16T04:56:22.049Z,5.75
2022-09-16T04:58:54.115Z,5.47
2022-09-16T05:01:23.939Z,4.70
2022-09-16T05:03:52.782Z,5.10
2022-09-16T05:06:25.212Z,4.43
2022-09-16T05:08:53.845Z,4.50
2022-09-16T05:11:23.444Z,4.32
2022-09-16T05:13:50.395Z,3.80
2022-09-16T05:16:19.649Z,4.72
2022-09-16T05:18:48.631Z,4.50
2022-09-16T05:21:19.293Z,4.00
2022-09-16T05:23:48.038Z,4.10
2022-09-16T05:26:20.847Z,3.43
2022-09-16T05:28:48.100Z,3.88
2022-09-16T05:31:22.266Z,3.85
2022-09-16T05:34:03.811Z,4.60
2022-09-16T05:36:33.859Z,4.50
2022-09-16T05:39:22.209Z,4.10
2022-09-16T05:41:49.885Z,4.45
2022-09-16T05:44:16.626Z,4.88
2022-09-16T05:46:43.884Z,6.05
2022-09-16T05:49:11.456Z,5.47
2022-09-16T05:51:39.715Z,5.43
2022-09-16T05:54:07.102Z,5.63
2022-09-16T05:56:33.911Z,5.47
2022-09-16T05:59:01.078Z,4.60
2022-09-16T06:01:31.329Z,4.80
2022-09-16T06:04:01.275Z,5.00
2022-09-16T06:06:37.375Z,5.05
2022-09-16T06:09:09.986Z,5.10
2022-09-16T06:11:40.772Z,4.43
2022-09-16T06:14:08.435Z,5.63
2022-09-16T06:16:36.177Z,4.87
2022-09-16T06:19:07.145Z,5.20
2022-09-16T06:21:33.867Z,6.90
2022-09-16T06:24:00.599Z,6.65
2022-09-16T06:26:28.491Z,5.50
2022-09-16T06:28:56.030Z,5.20
2022-09-16T06:31:28.001Z,5.22
2022-09-16T06:33:55.668Z,5.40
2022-09-16T06:36:24.498Z,5.57
2022-09-16T06:38:51.291Z,5.57
2022-09-16T06:41:19.901Z,5.17
2022-09-16T06:43:47.511Z,5.72
2022-09-16T06:46:17.120Z,5.55
2022-09-16T06:48:50.604Z,5.18
2022-09-16T06:51:20.285Z,4.88
2022-09-16T06:53:47.294Z,4.97
2022-09-16T06:56:16.507Z,5.05
2022-09-16T06:58:47.992Z,4.90
2022-09-16T07:01:17.918Z,5.00
2022-09-16T07:03:47.685Z,4.53
2022-09-16T07:06:16.186Z,4.27
2022-09-16T07:08:43.975Z,4.35
2022-09-16T07:11:16.205Z,4.50
2022-09-16T07:13:43.689Z,4.25
2022-09-16T07:16:14.140Z,4.20
2022-09-16T07:18:42.027Z,4.53
2022-09-16T07:21:14.699Z,4.70
2022-09-16T07:23:42.336Z,4.45
2022-09-16T07:26:16.370Z,4.80
2022-09-16T07:28:46.283Z,4.95
2022-09-16T07:31:18.757Z,4.63
2022-09-16T07:33:48.167Z,5.00
2022-09-16T07:36:17.911Z,4.30
2022-09-16T07:38:44.686Z,4.18
2022-09-16T07:41:20.359Z,4.22
2022-09-16T07:43:47.767Z,4.67
2022-09-16T07:46:18.983Z,4.50
2022-09-16T07:48:47.173Z,4.05
2022-09-16T07:51:20.312Z,4.35
2022-09-16T07:53:47.508Z,4.43
2022-09-16T07:56:16.934Z,4.63
2022-09-16T07:58:45.507Z,4.60
2022-09-16T08:01:15.232Z,4.38
2022-09-16T08:03:44.256Z,5.10
2022-09-16T08:06:14.380Z,4.65
2022-09-16T08:08:41.963Z,5.10
2022-09-16T08:11:09.527Z,4.40
2022-09-16T08:13:37.695Z,5.20
2022-09-16T08:16:10.622Z,4.80
2022-09-16T08:18:37.568Z,5.25
2022-09-16T08:21:08.854Z,4.63
2022-09-16T08:23:39.116Z,4.80
2022-09-16T08:26:08.496Z,4.57
2022-09-16T08:28:45.260Z,4.88
2022-09-16T08:31:22.266Z,4.50
2022-09-16T08:33:49.316Z,4.40
2022-09-16T08:36:20.087Z,4.50
2022-09-16T08:38:48.596Z,5.10
2022-09-16T08:41:46.810Z,5.93
2022-09-16T08:44:41.083Z,5.03
2022-09-16T08:47:28.978Z,4.90
2022-09-16T08:49:58.547Z,5.03
2022-09-16T08:52:37.467Z,4.93
2022-09-16T08:55:29.492Z,5.40
2022-09-16T08:58:13.166Z,4.70
2022-09-16T09:00:42.341Z,4.97
2022-09-16T09:03:40.716Z,5.22
2022-09-16T09:06:54.424Z,5.63
2022-09-16T09:09:37.842Z,5.32
2022-09-16T09:12:19.589Z,5.30
2022-09-16T09:15:08.306Z,5.20
2022-09-16T09:17:58.246Z,5.20
2022-09-16T09:21:01.926Z,5.05
2022-09-16T09:23:55.916Z,5.07
2022-09-16T09:26:46.127Z,5.60
2022-09-16T09:29:24.955Z,4.90
2022-09-16T09:32:02.596Z,4.68
2022-09-16T09:34:47.849Z,4.82
2022-09-16T09:37:54.157Z,4.50
2022-09-16T09:40:34.950Z,4.43
2022-09-16T09:43:19.293Z,5.10
2022-09-16T09:46:31.182Z,4.72
2022-09-16T09:49:09.871Z,4.38
2022-09-16T09:51:47.860Z,4.80
2022-09-16T09:54:20.429Z,4.75
2022-09-16T09:56:50.096Z,4.63
2022-09-16T09:59:32.210Z,4.78
2022-09-16T10:02:01.884Z,4.40
2022-09-16T10:04:39.136Z,4.65
2022-09-16T10:07:06.645Z,4.05
2022-09-16T10:09:35.790Z,4.20
2022-09-16T10:12:03.215Z,3.88
2022-09-16T10:14:35.758Z,4.10
2022-09-16T10:17:05.186Z,3.92
2022-09-16T10:19:54.677Z,3.95
2022-09-16T10:22:30.615Z,4.50
2022-09-16T10:25:02.781Z,4.57
2022-09-16T10:27:36.124Z,4.78
2022-09-16T10:30:06.443Z,4.00
2022-09-16T10:32:40.086Z,4.68
2022-09-16T10:35:08.256Z,4.23
2022-09-16T10:37:35.060Z,3.45
2022-09-16T10:40:04.785Z,3.80
2022-09-16T10:42:31.711Z,3.92
2022-09-16T10:45:10.439Z,4.15
2022-09-16T10:47:39.047Z,3.83
2022-09-16T10:50:07.154Z,4.20
2022-09-16T10:52:45.830Z,4.43
2022-09-16T10:55:35.389Z,4.65
2022-09-16T10:58:18.219Z,4.32
2022-09-16T11:01:17.643Z,4.27
2022-09-16T11:04:06.937Z,3.50
2022-09-16T11:06:38.034Z,4.20
2022-09-16T11:09:43.602Z,4.60
2022-09-16T11:12:34.551Z,3.85
2022-09-16T11:15:06.997Z,4.13
2022-09-16T11:17:56.814Z,4.25
2022-09-16T11:20:52.952Z,4.30
2022-09-16T11:23:44.690Z,4.25
2022-09-16T11:26:33.944Z,4.82
2022-09-16T11:29:13.220Z,4.43
2022-09-16T11:32:15.231Z,5.18
2022-09-16T11:34:58.800Z,4.43
2022-09-16T11:37:34.478Z,4.45
2022-09-16T11:40:06.777Z,4.38
2022-09-16T11:42:50.797Z,4.10
2022-09-16T11:45:23.526Z,4.60
2022-09-16T11:48:14.646Z,6.13
2022-09-16T11:50:47.366Z,6.40
2022-09-16T11:53:34.621Z,6.47
2022-09-16T11:56:17.300Z,6.13
2022-09-16T11:58:56.321Z,7.63
2022-09-16T12:01:42.161Z,6.68
2022-09-16T12:04:26.467Z,6.45
2022-09-16T12:07:01.157Z,6.65
2022-09-16T12:09:44.506Z,6.53
2022-09-16T12:12:18.368Z,6.05
2022-09-16T12:14:54.757Z,6.28
2022-09-16T12:17:28.419Z,7.30
2022-09-16T12:20:13.713Z,7.60
2022-09-16T12:22:46.303Z,6.40
2022-09-16T12:25:19.023Z,6.45
2022-09-16T12:28:03.355Z,6.97
2022-09-16T12:30:37.431Z,6.38
2022-09-16T12:33:24.124Z,6.47
2022-09-16T12:35:59.870Z,6.20
2022-09-16T12:38:26.808Z,6.43
2022-09-16T12:41:16.987Z,6.68
2022-09-16T12:44:30.583Z,6.32
2022-09-16T12:47:43.396Z,5.65
2022-09-16T12:50:21.953Z,5.40
2022-09-16T12:52:57.724Z,6.55
2022-09-16T12:55:35.834Z,6.10
2022-09-16T12:58:21.179Z,5.80
2022-09-16T13:01:14.116Z,5.95
2022-09-16T13:03:48.943Z,6.30
2022-09-16T13:06:24.061Z,6.82
2022-09-16T13:08:51.984Z,7.05
2022-09-16T13:14:25.107Z,7.80
2022-09-16T13:16:57.723Z,8.60
2022-09-16T13:19:34.248Z,8.05
2022-09-16T13:22:18.009Z,7.25
2022-09-16T13:24:55.611Z,7.68
2022-09-16T13:27:28.027Z,7.70
2022-09-16T13:30:11.316Z,7.43
2022-09-16T13:33:02.369Z,8.20
2022-09-16T13:35:32.544Z,7.55
2022-09-16T13:38:00.586Z,7.90
2022-09-16T13:40:30.848Z,7.95
2022-09-16T13:43:09.903Z,7.97
2022-09-16T13:45:38.219Z,8.60
2022-09-16T13:48:18.428Z,8.70
2022-09-16T13:51:10.710Z,9.73
2022-09-16T13:53:42.872Z,9.30
2022-09-16T13:56:47.811Z,9.57
2022-09-16T13:59:53.170Z,9.18
2022-09-16T14:02:33.082Z,9.10
2022-09-16T14:05:20.927Z,8.43
2022-09-16T14:07:53.536Z,8.93
2022-09-16T14:10:34.803Z,8.30
2022-09-16T14:13:07.500Z,9.13
2022-09-16T14:15:39.146Z,8.55
2022-09-16T14:18:07.027Z,8.88
2022-09-16T14:20:34.905Z,9.00
2022-09-16T14:23:11.971Z,8.93
2022-09-16T14:25:39.075Z,7.75
2022-09-16T14:28:25.152Z,7.68
2022-09-16T14:31:01.214Z,7.80
2022-09-16T14:33:57.193Z,7.90
2022-09-16T14:36:30.259Z,5.90
2022-09-16T14:39:00.454Z,6.35
2022-09-16T14:41:37.291Z,5.25
2022-09-16T14:44:18.980Z,5.55
2022-09-16T14:47:04.559Z,5.47
2022-09-16T14:49:37.957Z,5.23
2022-09-16T14:52:04.829Z,5.05
2022-09-16T14:54:31.911Z,4.60
2022-09-16T14:57:00.749Z,4.10
2022-09-16T14:59:31.265Z,4.88
2022-09-16T15:02:13.604Z,4.10
2022-09-16T15:04:44.750Z,3.72
2022-09-16T15:07:21.294Z,4.00
2022-09-16T15:10:01.118Z,3.92
2022-09-16T15:12:35.052Z,4.63
2022-09-16T15:15:24.694Z,4.73
2022-09-16T15:18:07.951Z,4.85
2022-09-16T15:20:39.491Z,4.93
2022-09-16T15:23:12.742Z,5.25
2022-09-16T15:25:39.657Z,5.45
2022-09-16T15:28:19.275Z,6.00
2022-09-16T15:30:51.356Z,6.25
2022-09-16T15:33:40.883Z,5.63
2022-09-16T15:36:40.949Z,6.63
2022-09-16T15:39:28.440Z,6.10
2022-09-16T15:42:07.102Z,6.20
2022-09-16T15:44:37.301Z,5.82
2022-09-16T15:47:04.888Z,5.88
2022-09-16T15:49:36.470Z,5.80
2022-09-16T15:52:09.309Z,5.68
2022-09-16T15:54:53.868Z,6.10
2022-09-16T15:57:20.484Z,6.28
2022-09-16T15:59:53.373Z,6.57
2022-09-16T16:02:32.744Z,6.57
2022-09-16T16:05:31.371Z,7.28
2022-09-16T16:08:00.625Z,7.20
2022-09-16T16:10:31.366Z,5.95
2022-09-16T16:13:00.724Z,6.07
2022-09-16T16:15:32.366Z,6.38
2022-09-16T16:18:01.848Z,5.75
2022-09-16T16:20:34.618Z,5.87
2022-09-16T16:23:01.990Z,4.90
2022-09-16T16:25:29.739Z,5.30
2022-09-16T16:27:56.968Z,4.60
2022-09-16T16:30:24.476Z,4.40
2022-09-16T16:32:51.587Z,4.33
2022-09-16T16:35:19.576Z,4.50
2022-09-16T16:37:47.427Z,4.85
2022-09-16T16:40:15.613Z,3.65
2022-09-16T16:42:43.748Z,4.10
2022-09-16T16:45:13.424Z,4.13
2022-09-16T16:47:40.363Z,4.32
2022-09-16T16:50:07.317Z,3.97
2022-09-16T16:52:34.163Z,3.47
2022-09-16T16:55:01.047Z,3.60
2022-09-16T16:57:27.757Z,3.30
2022-09-16T16:59:54.534Z,3.40
2022-09-16T17:02:21.286Z,3.22
2022-09-16T17:04:47.986Z,3.13
2022-09-16T17:07:26.259Z,2.65
2022-09-16T17:09:54.035Z,2.90
2022-09-16T17:12:20.872Z,3.13
2022-09-16T17:14:47.715Z,3.00
2022-09-16T17:17:14.400Z,3.10
2022-09-16T17:19:41.097Z,3.45
2022-09-16T17:22:08.907Z,3.33
2022-09-16T17:24:35.601Z,3.20
2022-09-16T17:27:02.669Z,3.50
2022-09-16T17:29:29.360Z,2.97
2022-09-16T17:32:02.429Z,3.45
2022-09-16T17:34:30.166Z,3.42
2022-09-16T17:36:58.408Z,3.03
2022-09-16T17:39:25.283Z,3.70
2022-09-16T17:41:52.018Z,3.10
2022-09-16T17:44:19.445Z,2.78
2022-09-16T17:46:46.948Z,3.20
2022-09-16T17:49:21.247Z,2.70
2022-09-16T17:51:48.427Z,2.78
2022-09-16T17:54:15.327Z,2.67
2022-09-16T17:56:45.067Z,2.92
2022-09-16T17:59:13.527Z,3.17
2022-09-16T18:01:40.273Z,3.07
2022-09-16T18:04:07.589Z,2.80
2022-09-16T18:06:45.203Z,2.92
2022-09-16T18:09:13.177Z,2.67
2022-09-16T18:11:40.234Z,2.80
2022-09-16T18:14:10.755Z,2.50
2022-09-16T18:16:38.146Z,2.60
2022-09-16T18:19:05.160Z,2.40
2022-09-16T18:21:32.212Z,2.28
2022-09-16T18:24:01.073Z,2.25
2022-09-16T18:26:28.847Z,2.43
2022-09-16T18:29:09.519Z,2.60
2022-09-16T18:31:36.924Z,2.55
2022-09-16T18:34:04.406Z,2.65
2022-09-16T18:36:32.766Z,2.28
2022-09-16T18:38:59.807Z,2.30
2022-09-16T18:41:29.363Z,1.90
2022-09-16T18:44:01.833Z,2.42
2022-09-16T18:46:30.909Z,2.47
2022-09-16T18:48:58.498Z,2.42
2022-09-16T18:51:26.627Z,2.10
2022-09-16T18:53:57.764Z,2.65
2022-09-16T18:56:25.588Z,2.45
2022-09-16T18:59:17.085Z,2.60
2022-09-16T19:01:41.658Z,3.10
2022-09-16T19:04:10.795Z,2.70
2022-09-16T19:06:43.158Z,2.55
2022-09-16T19:09:12.568Z,2.60
2022-09-16T19:11:39.724Z,2.72
2022-09-16T19:14:11.479Z,2.75
2022-09-16T19:16:41.991Z,3.10
2022-09-16T19:19:11.775Z,2.65
2022-09-16T19:21:38.698Z,2.78
2022-09-16T19:24:08.222Z,3.17
2022-09-16T19:26:37.312Z,3.00
2022-09-16T19:29:06.888Z,2.87
2022-09-16T19:31:35.929Z,2.63
2022-09-16T19:34:02.765Z,2.40
2022-09-16T19:36:31.628Z,2.60
2022-09-16T19:38:59.214Z,2.90
2022-09-16T19:41:31.760Z,2.37
2022-09-16T19:44:00.880Z,2.70
2022-09-16T19:46:29.307Z,2.60
2022-09-16T19:48:56.423Z,2.40
2022-09-16T19:51:24.883Z,2.80
2022-09-16T19:53:53.101Z,2.50
2022-09-16T19:56:23.572Z,2.67
2022-09-16T19:58:51.881Z,4.45
2022-09-16T20:01:23.919Z,3.38
2022-09-16T20:03:51.522Z,3.03
2022-09-16T20:06:21.437Z,2.30
2022-09-16T20:08:52.444Z,2.60
2022-09-16T20:11:22.147Z,2.50
2022-09-16T20:13:53.067Z,2.60
2022-09-16T20:16:21.960Z,2.50
2022-09-16T20:18:49.607Z,2.57
2022-09-16T20:21:21.269Z,2.67
2022-09-16T20:23:48.964Z,2.63
2022-09-16T20:26:19.778Z,2.70
2022-09-16T20:28:51.954Z,2.80
2022-09-16T20:31:24.054Z,2.53
2022-09-16T20:33:51.515Z,2.42
2022-09-16T20:36:21.592Z,2.60
2022-09-16T20:38:49.017Z,2.40
2022-09-16T20:41:18.628Z,2.88
2022-09-16T20:43:46.451Z,2.40
2022-09-16T20:56:41.070Z,5.47
2022-09-16T20:59:10.177Z,3.10
2022-09-16T21:01:38.494Z,2.85
2022-09-16T21:04:08.065Z,5.30
2022-09-16T21:06:36.244Z,3.10
2022-09-16T21:09:05.792Z,2.38
2022-09-16T21:11:33.250Z,2.30
2022-09-16T21:14:01.974Z,1.83
2022-09-16T21:16:31.754Z,2.30
2022-09-16T21:19:00.884Z,1.90
2022-09-16T21:21:28.620Z,2.28
2022-09-16T21:23:57.844Z,1.90
2022-09-16T21:26:29.137Z,2.25
2022-09-16T21:28:58.104Z,2.38
2022-09-16T21:31:26.994Z,1.98
2022-09-16T21:33:54.444Z,2.22
2022-09-16T21:36:23.000Z,2.27
2022-09-16T21:38:49.754Z,2.22
2022-09-16T21:41:18.870Z,1.90
2022-09-16T21:43:51.244Z,1.90
2022-09-16T21:46:20.399Z,1.60
2022-09-16T21:48:48.397Z,2.13
2022-09-16T21:51:17.135Z,2.08
2022-09-16T21:53:45.459Z,2.20
2022-09-16T21:56:15.548Z,2.10
2022-09-16T21:58:42.759Z,2.30
2022-09-16T22:01:14.147Z,1.90
2022-09-16T22:03:42.228Z,2.05
2022-09-16T22:06:11.353Z,2.30
2022-09-16T22:08:38.520Z,2.25
2022-09-16T22:11:11.862Z,2.45
2022-09-16T22:13:38.874Z,1.80
2022-09-16T22:16:07.187Z,2.28
2022-09-16T22:18:37.390Z,2.80
2022-09-16T22:21:06.764Z,2.13
2022-09-16T22:23:35.398Z,2.45
2022-09-16T22:26:06.515Z,2.30
2022-09-16T22:28:35.221Z,2.30
2022-09-16T22:31:13.400Z,2.85
2022-09-16T22:33:42.758Z,2.58
2022-09-16T22:36:12.479Z,2.50
2022-09-16T22:38:39.668Z,2.30
2022-09-16T22:41:08.608Z,2.83
2022-09-16T22:43:39.956Z,2.60
2022-09-16T22:46:12.816Z,2.33
2022-09-16T22:48:40.295Z,2.25
2022-09-16T22:51:07.743Z,2.60
2022-09-16T22:53:34.966Z,2.60
2022-09-16T22:56:06.451Z,2.42
2022-09-16T22:58:33.725Z,2.50
2022-09-16T23:01:06.825Z,2.65
2022-09-16T23:03:34.609Z,2.60
2022-09-16T23:06:03.712Z,2.58
2022-09-16T23:08:31.119Z,2.67
2022-09-16T23:11:02.107Z,2.65
2022-09-16T23:13:29.675Z,2.50
2022-09-16T23:15:59.822Z,2.37
2022-09-16T23:18:26.602Z,2.20
2022-09-16T23:21:16.535Z,2.70
2022-09-16T23:23:45.644Z,2.47
2022-09-16T23:26:18.106Z,2.47
2022-09-16T23:28:45.750Z,2.40
2022-09-16T23:31:16.087Z,2.13
2022-09-16T23:33:43.916Z,2.08
2022-09-16T23:36:13.092Z,2.40
2022-09-16T23:38:41.028Z,2.22
2022-09-16T23:41:19.875Z,2.60
2022-09-16T23:43:48.096Z,2.33
2022-09-16T23:46:17.606Z,2.40
2022-09-16T23:48:44.853Z,2.50
2022-09-16T23:51:12.787Z,2.80
2022-09-16T23:53:42.496Z,2.53
2022-09-16T23:56:11.328Z,2.40
2022-09-16T23:58:38.443Z,2.45
